»·PEaware :: N4736T KSBA-KVGT

N4736T :: KSBA-KVGT

FLIGHT INFORMATION

Flight Status: Arrived
Operator: Privately registered:
United States
More flights under this callsign
Pilot: Michael F. (9548)
Aircraft: BEECH AIRCRAFT SUPER KING AIR COMMUTER
(BE20)
More flights by this aircraft type
Origin: KSBA Santa Barbara Mun
United States
Destination: KVGT North Las Vegas
United States
More flights between these airports :: More routes between these airports
Route: +KWANG5 GINNA DAG V587 BLD
File this flight plan on PilotEdge
Remarks: OWN WX
Altitude:
(Current/Filed)
23,000ft
Speed:
(Current/Filed)
200kts
Departed: 06-Feb-19 05:14 PM
Arrived: 06-Feb-19 06:23 PM
Distance/Time
Traveled:
251nm/1:09
Distance/Time
To Go:
Arrived

Flight Plot

Page will automatically refresh every two minutes.

Flight plan parsing failed; only flown route is shown


Map Options




Map Legend


Flown Route
Filed Route
Departure Airport
Arrival Airport
Navaid (VOR, NDB)
Fix

Horizontal Profiles

Position Reports

Time Latitude Longitude Heading Altitude Ground
Speed
06-Feb-19 16:33 34.432561 -119.835114 71 17ft 0kts
06-Feb-19 16:34 34.432561 -119.835114 71 17ft 0kts
06-Feb-19 16:35 34.432561 -119.835114 71 17ft 0kts
06-Feb-19 16:36 34.432561 -119.835114 71 17ft 0kts
06-Feb-19 16:37 34.432561 -119.835114 71 17ft 0kts
06-Feb-19 16:38 34.432561 -119.835114 71 17ft 0kts
06-Feb-19 16:39 34.432561 -119.835114 71 17ft 0kts
06-Feb-19 16:40 34.432561 -119.835114 71 17ft 0kts
06-Feb-19 16:41 34.432561 -119.835114 71 17ft 0kts
06-Feb-19 16:42 34.432561 -119.835114 71 17ft 0kts
06-Feb-19 16:43 34.432561 -119.835114 71 17ft 0kts
06-Feb-19 16:44 34.432561 -119.835114 71 17ft 0kts
06-Feb-19 16:45 34.432561 -119.835114 71 17ft 0kts
06-Feb-19 16:46 34.432561 -119.835114 71 17ft 0kts
06-Feb-19 16:48 34.432561 -119.835114 71 17ft 0kts
06-Feb-19 16:49 34.432561 -119.835114 71 17ft 0kts
06-Feb-19 16:50 34.432561 -119.835114 71 17ft 0kts
06-Feb-19 16:51 34.432561 -119.835114 71 17ft 0kts
06-Feb-19 16:52 34.432561 -119.835114 71 17ft 0kts
06-Feb-19 16:53 34.432561 -119.835114 71 17ft 0kts
06-Feb-19 16:54 34.432561 -119.835114 71 17ft 0kts
06-Feb-19 16:55 34.432561 -119.835114 71 17ft 0kts
06-Feb-19 16:56 34.432561 -119.835114 71 17ft 0kts
06-Feb-19 16:57 34.432561 -119.835114 71 17ft 0kts
06-Feb-19 16:58 34.432561 -119.835114 71 17ft 0kts
06-Feb-19 16:59 34.432561 -119.835114 71 17ft 0kts
06-Feb-19 17:00 34.432561 -119.835114 71 17ft 0kts
06-Feb-19 17:01 34.432561 -119.835114 71 17ft 0kts
06-Feb-19 17:02 34.432561 -119.835114 71 17ft 0kts
06-Feb-19 17:04 34.432561 -119.835114 71 17ft 0kts
06-Feb-19 17:05 34.432561 -119.835114 71 17ft 0kts
06-Feb-19 17:06 34.432561 -119.835114 71 17ft 0kts
06-Feb-19 17:07 34.432562 -119.835114 71 17ft 0kts
06-Feb-19 17:08 34.432057 -119.835622 107 17ft 11kts
06-Feb-19 17:09 34.429797 -119.835293 183 17ft 16kts
06-Feb-19 17:10 34.428886 -119.835303 178 17ft 0kts
06-Feb-19 17:11 34.428886 -119.835303 178 17ft 0kts
06-Feb-19 17:12 34.428886 -119.835303 178 17ft 0kts
06-Feb-19 17:13 34.427753 -119.860850 273 693ft 156kts
06-Feb-19 17:14 34.409239 -119.905785 171 2381ft 215kts
06-Feb-19 17:15 34.380136 -119.855167 74 3206ft 217kts
06-Feb-19 17:16 34.401250 -119.791089 68 3879ft 210kts
06-Feb-19 17:17 34.387014 -119.725221 110 4502ft 202kts
06-Feb-19 17:18 34.364876 -119.661896 115 5690ft 215kts
06-Feb-19 17:19 34.334891 -119.596097 123 6528ft 226kts
06-Feb-19 17:20 34.310211 -119.533330 86 7628ft 222kts
06-Feb-19 17:21 34.299329 -119.461754 104 8103ft 246kts
06-Feb-19 17:22 34.280918 -119.381257 105 8011ft 259kts
06-Feb-19 17:23 34.264715 -119.310560 106 8474ft 247kts
06-Feb-19 17:24 34.249874 -119.239301 105 9178ft 240kts
06-Feb-19 17:25 34.234051 -119.168099 107 9908ft 246kts
06-Feb-19 17:26 34.218071 -119.089689 92 10656ft 276kts
06-Feb-19 17:27 34.220579 -119.006745 88 11363ft 283kts
06-Feb-19 17:28 34.221258 -118.922053 84 12080ft 286kts
06-Feb-19 17:29 34.228152 -118.836661 78 12941ft 286kts
06-Feb-19 17:30 34.253213 -118.757907 69 13819ft 288kts
06-Feb-19 17:31 34.279152 -118.681488 70 14700ft 287kts
06-Feb-19 17:32 34.307620 -118.590125 65 15640ft 290kts
06-Feb-19 17:33 34.337384 -118.509207 69 16890ft 283kts
06-Feb-19 17:34 34.366348 -118.422510 70 17619ft 294kts
06-Feb-19 17:35 34.394767 -118.338921 70 18642ft 283kts
06-Feb-19 17:37 34.424433 -118.250179 70 19599ft 306kts
06-Feb-19 17:38 34.453676 -118.162693 70 20488ft 314kts
06-Feb-19 17:39 34.484205 -118.071055 70 21405ft 317kts
06-Feb-19 17:40 34.515461 -117.976952 70 22348ft 318kts
06-Feb-19 17:41 34.545980 -117.884811 70 23138ft 324kts
06-Feb-19 17:42 34.573819 -117.800396 70 23160ft 343kts
06-Feb-19 17:43 34.610171 -117.689919 70 23162ft 351kts
06-Feb-19 17:44 34.645526 -117.582137 70 23171ft 353kts
06-Feb-19 17:45 34.680824 -117.474058 69 23173ft 353kts
06-Feb-19 17:46 34.716095 -117.365804 69 23174ft 354kts
06-Feb-19 17:47 34.752444 -117.258506 61 23161ft 353kts
06-Feb-19 17:48 34.796750 -117.156424 67 23149ft 353kts
06-Feb-19 17:49 34.831698 -117.049401 71 23132ft 353kts
06-Feb-19 17:50 34.861391 -116.949634 76 23121ft 354kts
06-Feb-19 17:51 34.888191 -116.835968 73 23125ft 356kts
06-Feb-19 17:52 34.922496 -116.723871 71 23136ft 356kts
06-Feb-19 17:53 34.958014 -116.612009 71 23129ft 355kts
06-Feb-19 17:54 35.001786 -116.504754 63 23143ft 356kts
06-Feb-19 17:55 35.048643 -116.399542 64 23166ft 354kts
06-Feb-19 17:56 35.094028 -116.297077 65 23156ft 340kts
06-Feb-19 17:56 35.130618 -116.214292 65 23146ft 332kts
06-Feb-19 17:57 35.173708 -116.116421 65 23149ft 328kts
06-Feb-19 17:59 35.223833 -116.002393 65 23151ft 327kts
06-Feb-19 17:59 35.259457 -115.921130 65 23153ft 327kts
06-Feb-19 18:00 35.301508 -115.824876 65 23164ft 327kts
06-Feb-19 18:01 35.354325 -115.739835 46 23176ft 329kts
06-Feb-19 18:02 35.412812 -115.662381 46 23185ft 330kts
06-Feb-19 18:03 35.474061 -115.580756 46 22644ft 337kts
06-Feb-19 18:04 35.533999 -115.500550 46 21910ft 331kts
06-Feb-19 18:05 35.592008 -115.422708 46 21202ft 329kts
06-Feb-19 18:06 35.648369 -115.347008 47 20519ft 328kts
06-Feb-19 18:07 35.706355 -115.268922 48 19756ft 327kts
06-Feb-19 18:08 35.761052 -115.189163 48 18955ft 328kts
06-Feb-19 18:09 35.820097 -115.115754 45 17498ft 320kts
06-Feb-19 18:10 35.881785 -115.061662 356 16053ft 290kts
06-Feb-19 18:11 35.953496 -115.059634 354 14569ft 263kts
06-Feb-19 18:12 36.017122 -115.058676 354 13151ft 250kts
06-Feb-19 18:13 36.074941 -115.058164 353 11726ft 218kts
06-Feb-19 18:14 36.122127 -115.055928 353 10776ft 168kts
06-Feb-19 18:15 36.146326 -115.075718 248 9238ft 117kts
06-Feb-19 18:16 36.122502 -115.066439 100 7831ft 176kts
06-Feb-19 18:17 36.147564 -115.046970 305 6332ft 146kts
06-Feb-19 18:18 36.158517 -115.087751 281 5038ft 143kts
06-Feb-19 18:19 36.172479 -115.133370 286 3605ft 145kts
06-Feb-19 18:20 36.192016 -115.174041 315 2700ft 140kts
06-Feb-19 18:21 36.209449 -115.196119 311 2209ft 44kts
06-Feb-19 18:22 36.209489 -115.197290 135 2209ft 10kts
06-Feb-19 18:23 36.207384 -115.195281 131 2209ft 7kts
06-Feb-19 18:24 36.206489 -115.194228 135 2209ft 0kts

Navigation Log

Ident Type
Flight plan parsing failed, navigation log unavailable